Time;durP1;ratioP1;P1;durP2;ratioP2;P2;SDS_P1;SDS_P2;PMS_P1;PMS_P2;Temp;Humidity;BMP_temperature;BMP_pressure;BME280_temperature;BME280_humidity;BME280_pressure;Samples;Min_cycle;Max_cycle;Signal;HPM_P1;HPM_P2
2022/10/18 00:00:47;;;;;;;;;10.50;10.00;;;;;16.48;100.00;101552.09;4962821;28;45957;-90
2022/10/18 00:03:12;;;;;;;;;14.00;12.50;;;;;16.27;100.00;101522.44;4977541;28;45610;-91
2022/10/18 00:05:37;;;;;;;;;15.00;15.00;;;;;16.67;100.00;101584.44;4937025;28;48744;-90
2022/10/18 00:08:03;;;;;;;;;11.50;9.50;;;;;15.68;100.00;101427.22;4969099;28;45412;-91
2022/10/18 00:10:28;;;;;;;;;13.00;12.00;;;;;15.80;100.00;101458.91;4970737;28;45895;-89
2022/10/18 00:12:53;;;;;;;;;14.75;13.50;;;;;16.61;100.00;101598.84;4956073;28;45385;-90
2022/10/18 00:15:19;;;;;;;;;16.25;13.75;;;;;15.94;100.00;101486.94;4955097;28;47524;-88
2022/10/18 00:17:44;;;;;;;;;17.00;14.00;;;;;15.97;100.00;101484.19;4955692;28;45353;-89
2022/10/18 00:20:10;;;;;;;;;15.75;12.75;;;;;16.46;100.00;101570.81;4945478;28;45303;-89
2022/10/18 00:22:38;;;;;;;;;19.00;15.25;;;;;16.29;100.00;101543.72;4936713;28;45321;-89
2022/10/18 00:25:05;;;;;;;;;13.75;13.50;;;;;15.91;100.00;101471.94;4968231;28;47187;-89
2022/10/18 00:27:31;;;;;;;;;11.50;10.25;;;;;16.52;100.00;101577.78;4936697;28;45318;-89
2022/10/18 00:29:58;;;;;;;;;16.25;12.00;;;;;16.74;100.00;101619.84;4953653;28;45392;-88
2022/10/18 00:32:23;;;;;;;;;14.25;14.25;;;;;16.70;100.00;101611.94;4954860;28;45346;-89
2022/10/18 00:34:48;;;;;;;;;19.75;17.75;;;;;15.93;100.00;101486.06;4944162;28;47140;-91
2022/10/18 00:37:14;;;;;;;;;21.50;18.50;;;;;15.07;100.00;101352.50;4950535;28;45321;-92
2022/10/18 00:39:39;;;;;;;;;19.25;16.75;;;;;16.10;100.00;101519.41;4956600;28;45923;-90
2022/10/18 00:42:05;;;;;;;;;18.50;16.25;;;;;16.26;100.00;101535.81;4955687;28;45439;-90
2022/10/18 00:44:30;;;;;;;;;18.25;16.50;;;;;16.66;100.00;101612.06;4971791;28;46380;-91
2022/10/18 00:47:02;;;;;;;;;17.50;14.25;;;;;16.23;100.00;101538.56;4956926;28;45396;-90
2022/10/18 00:49:32;;;;;;;;;20.00;18.50;;;;;16.62;100.00;101603.25;4955966;28;45428;-91
2022/10/18 00:52:27;;;;;;;;;21.25;16.50;;;;;16.67;100.00;101620.03;4957220;28;45678;-89
2022/10/18 00:54:55;;;;;;;;;22.25;18.50;;;;;16.07;100.00;101525.69;4950869;28;48663;-89
2022/10/18 00:57:21;;;;;;;;;21.25;18.00;;;;;15.43;100.00;101427.03;4952445;28;45460;-89
2022/10/18 00:59:46;;;;;;;;;18.25;16.25;;;;;15.99;100.00;101525.03;4936030;28;45354;-89
2022/10/18 01:02:17;;;;;;;;;21.75;18.00;;;;;16.55;100.00;101624.81;4950656;28;45519;-89
2022/10/18 01:04:44;;;;;;;;;18.00;16.00;;;;;15.96;100.00;101533.97;4954524;28;48186;-89
2022/10/18 01:07:19;;;;;;;;;16.00;16.00;;;;;15.70;100.00;101478.69;4954978;28;45403;-89
2022/10/18 01:10:10;;;;;;;;;18.00;16.75;;;;;16.17;100.00;101556.50;4955534;28;45399;-89
2022/10/18 01:13:02;;;;;;;;;15.00;14.00;;;;;16.05;100.00;101532.84;4959313;28;45360;-89
2022/10/18 01:15:39;;;;;;;;;16.50;14.25;;;;;16.14;100.00;101537.94;4957518;28;48088;-89
2022/10/18 01:18:15;;;;;;;;;15.50;13.75;;;;;16.68;100.00;101628.91;4952338;28;46099;-89
2022/10/18 01:20:52;;;;;;;;;18.00;16.75;;;;;16.68;100.00;101631.56;4953391;28;45523;-89
2022/10/18 01:23:45;;;;;;;;;14.50;14.00;;;;;16.70;100.00;101637.72;4955928;28;45476;-89
2022/10/18 01:26:52;;;;;;;;;16.25;16.00;;;;;16.68;100.00;101629.75;4955995;28;47371;-90
2022/10/18 01:29:38;;;;;;;;;18.50;16.50;;;;;16.68;100.00;101628.91;4959179;28;45291;-90
2022/10/18 01:32:13;;;;;;;;;17.75;16.25;;;;;15.52;100.00;101431.22;4959561;28;45254;-91
2022/10/18 01:34:43;;;;;;;;;16.50;15.25;;;;;15.29;100.00;101403.41;4980662;28;45602;-91
2022/10/18 01:37:12;;;;;;;;;17.00;17.00;;;;;16.02;100.00;101530.28;4972132;28;47644;-92
2022/10/18 01:39:43;;;;;;;;;15.75;15.00;;;;;15.27;100.00;101407.91;4971964;28;45529;-91
2022/10/18 01:42:12;;;;;;;;;20.25;19.00;;;;;15.39;100.00;101423.53;4952705;28;45311;-92
2022/10/18 01:44:40;;;;;;;;;15.75;15.75;;;;;16.68;100.00;101628.91;4953282;28;45454;-91
2022/10/18 01:47:08;;;;;;;;;12.75;12.75;;;;;16.51;100.00;101603.56;4955586;28;47540;-91
2022/10/18 01:49:34;;;;;;;;;16.00;15.50;;;;;15.99;100.00;101520.56;4939253;28;45450;-90
2022/10/18 01:51:59;;;;;;;;;22.50;19.25;;;;;15.25;100.00;101388.44;4939455;28;45370;-91
2022/10/18 01:54:34;;;;;;;;;20.25;17.75;;;;;16.38;100.00;101594.16;4972113;28;45661;-92
2022/10/18 01:57:29;;;;;;;;;18.50;17.75;;;;;16.48;100.00;101610.78;4940402;28;48737;-91
2022/10/18 02:00:12;;;;;;;;;14.75;14.00;;;;;16.58;100.00;101622.97;4945787;28;45318;-91
2022/10/18 02:02:50;;;;;;;;;17.25;15.00;;;;;16.57;100.00;101625.69;4958151;28;45653;-92
2022/10/18 02:05:28;;;;;;;;;21.50;19.75;;;;;15.84;100.00;101490.81;4975299;28;45588;-92
2022/10/18 02:08:15;;;;;;;;;20.00;17.50;;;;;15.83;100.00;101495.25;4959297;28;48375;-91
2022/10/18 02:10:46;;;;;;;;;22.25;20.00;;;;;16.12;100.00;101547.78;4955933;28;45785;-91
2022/10/18 02:13:16;;;;;;;;;20.00;18.25;;;;;16.10;100.00;101546.94;4945874;28;45318;-91
2022/10/18 02:15:48;;;;;;;;;22.00;18.00;;;;;15.79;100.00;101504.22;4954638;28;45349;-91
2022/10/18 02:18:19;;;;;;;;;17.50;17.00;;;;;16.11;100.00;101558.47;4954128;28;48836;-91
2022/10/18 02:20:47;;;;;;;;;18.50;16.75;;;;;15.29;100.00;101419.41;4955009;28;45350;-91
2022/10/18 02:23:15;;;;;;;;;19.50;18.75;;;;;15.43;100.00;101454.53;4971036;28;45418;-90
2022/10/18 02:25:40;;;;;;;;;19.25;17.25;;;;;15.37;100.00;101452.03;4948440;28;45477;-90
2022/10/18 02:28:06;;;;;;;;;20.50;19.25;;;;;16.09;100.00;101573.63;4958993;28;47229;-91
2022/10/18 02:30:50;;;;;;;;;21.50;20.75;;;;;16.40;100.00;101624.34;4951649;28;45414;-90
2022/10/18 02:33:32;;;;;;;;;21.50;19.50;;;;;15.58;100.00;101492.34;4950857;28;45417;-91
2022/10/18 02:36:04;;;;;;;;;19.75;16.75;;;;;16.11;100.00;101596.69;4957592;28;45254;-90
2022/10/18 02:38:31;;;;;;;;;23.75;19.00;;;;;14.74;100.00;101382.63;4957885;28;46275;-91
2022/10/18 02:41:00;;;;;;;;;23.25;20.00;;;;;14.68;100.00;101385.44;4955872;28;45921;-88
2022/10/18 02:43:25;;;;;;;;;20.75;18.25;;;;;15.65;100.00;101549.88;4938219;28;45270;-88
2022/10/18 02:45:51;;;;;;;;;24.75;18.75;;;;;16.14;100.00;101644.59;4937372;28;45524;-88
2022/10/18 02:48:16;;;;;;;;;27.00;24.00;;;;;14.83;100.00;101421.41;4953237;28;47178;-88
2022/10/18 02:50:41;;;;;;;;;18.75;17.50;;;;;15.38;100.00;101527.47;4964960;28;45576;-88
2022/10/18 02:53:07;;;;;;;;;19.75;18.50;;;;;15.60;100.00;101567.78;4939437;28;45429;-88
2022/10/18 02:55:32;;;;;;;;;21.25;18.75;;;;;15.37;100.00;101547.91;4969398;28;45349;-87
2022/10/18 02:57:57;;;;;;;;;21.25;19.50;;;;;15.30;100.00;101517.00;4939150;28;45401;-91
2022/10/18 03:00:23;;;;;;;;;24.50;20.75;;;;;14.62;100.00;101396.22;4953503;28;46718;-91
2022/10/18 03:02:48;;;;;;;;;19.75;18.75;;;;;14.64;100.00;101398.84;4959063;28;45455;-91
2022/10/18 03:05:13;;;;;;;;;21.00;18.75;;;;;15.24;100.00;101502.06;4971711;28;45478;-90
2022/10/18 03:07:39;;;;;;;;;22.00;20.25;;;;;15.49;100.00;101540.50;4938384;28;47133;-91
2022/10/18 03:10:05;;;;;;;;;21.00;20.75;;;;;15.61;100.00;101564.19;4955411;28;45460;-91
2022/10/18 03:12:30;;;;;;;;;26.75;23.00;;;;;15.28;100.00;101513.50;4972958;28;45568;-91
2022/10/18 03:14:55;;;;;;;;;22.75;19.50;;;;;15.36;100.00;101527.50;4956595;28;45492;-91
2022/10/18 03:17:21;;;;;;;;;22.75;20.25;;;;;14.94;100.00;101455.78;4957260;28;47008;-90
2022/10/18 03:19:46;;;;;;;;;20.25;18.25;;;;;15.23;100.00;101510.09;4973303;28;45336;-92
2022/10/18 03:22:11;;;;;;;;;22.75;20.50;;;;;15.15;100.00;101512.06;4956593;28;45250;-91
2022/10/18 03:24:37;;;;;;;;;23.25;21.50;;;;;15.40;100.00;101549.63;4957159;28;45389;-91
2022/10/18 03:27:02;;;;;;;;;19.75;18.00;;;;;15.44;100.00;101562.84;4958322;28;47192;-91
2022/10/18 03:29:28;;;;;;;;;21.50;20.50;;;;;15.26;100.00;101532.19;4975122;28;45792;-90
2022/10/18 03:31:53;;;;;;;;;25.75;23.00;;;;;15.12;100.00;101502.34;4964840;28;45335;-91
2022/10/18 03:34:18;;;;;;;;;23.50;20.00;;;;;15.01;100.00;101486.63;4976375;28;45393;-90
2022/10/18 03:36:44;;;;;;;;;22.00;22.00;;;;;15.39;100.00;101558.53;4976920;28;48177;-90
2022/10/18 03:39:10;;;;;;;;;30.00;26.25;;;;;15.86;100.00;101631.09;4958080;28;45468;-90
2022/10/18 03:41:36;;;;;;;;;24.25;23.00;;;;;14.74;100.00;101446.47;4970478;28;45436;-91
2022/10/18 03:44:01;;;;;;;;;25.25;22.75;;;;;14.57;100.00;101424.66;4937503;28;45355;-90
2022/10/18 03:46:26;;;;;;;;;26.00;24.00;;;;;15.06;100.00;101511.38;4953849;28;47976;-91
2022/10/18 03:48:52;;;;;;;;;26.50;23.75;;;;;15.22;100.00;101532.31;4973958;28;45376;-91
2022/10/18 03:51:17;;;;;;;;;26.75;24.50;;;;;15.35;100.00;101555.06;4956731;28;45314;-91
2022/10/18 03:53:42;;;;;;;;;27.50;23.75;;;;;15.45;100.00;101575.22;4958879;28;45643;-91
2022/10/18 03:56:08;;;;;;;;;23.25;23.25;;;;;15.15;100.00;101538.69;4953570;28;48280;-91
2022/10/18 03:58:34;;;;;;;;;30.75;25.00;;;;;14.51;100.00;101424.81;4964996;28;45999;-91
2022/10/18 04:01:00;;;;;;;;;28.25;26.00;;;;;15.37;100.00;101571.00;4975793;28;45442;-91
2022/10/18 04:03:25;;;;;;;;;24.25;24.25;;;;;14.81;100.00;101476.47;4956486;28;45521;-91
2022/10/18 04:05:50;;;;;;;;;25.50;23.25;;;;;15.42;100.00;101580.63;4956352;28;47224;-91
2022/10/18 04:08:17;;;;;;;;;28.00;26.50;;;;;16.09;100.00;101697.16;4938326;28;45521;-90
2022/10/18 04:10:42;;;;;;;;;24.75;23.50;;;;;14.49;100.00;101427.50;4937288;28;45269;-91
2022/10/18 04:13:08;;;;;;;;;35.25;25.00;;;;;14.51;100.00;101430.13;4936792;28;45448;-91
2022/10/18 04:15:33;;;;;;;;;25.00;24.25;;;;;14.32;100.00;101405.75;4937778;28;46691;-91
2022/10/18 04:17:59;;;;;;;;;32.75;26.00;;;;;15.42;100.00;101607.25;4955282;28;45282;-89
2022/10/18 04:20:25;;;;;;;;;31.00;26.75;;;;;15.28;100.00;101569.44;4940400;28;45359;-91
2022/10/18 04:22:50;;;;;;;;;29.50;25.25;;;;;15.66;100.00;101655.56;4944949;28;45192;-91
2022/10/18 04:25:16;;;;;;;;;32.00;29.25;;;;;15.17;100.00;101547.50;4970134;28;47220;-92
2022/10/18 04:27:42;;;;;;;;;29.75;25.75;;;;;14.98;100.00;101517.78;4972089;28;45409;-90
2022/10/18 04:30:08;;;;;;;;;30.25;25.75;;;;;15.69;100.00;101641.28;4957401;28;45364;-90
2022/10/18 04:32:34;;;;;;;;;27.00;23.50;;;;;14.48;100.00;101436.38;4956745;28;45431;-90
2022/10/18 04:35:03;;;;;;;;;31.00;26.75;;;;;15.37;100.00;101582.53;4971581;28;48008;-90
2022/10/18 04:37:29;;;;;;;;;25.00;24.50;;;;;15.68;100.00;101636.84;4981766;28;45984;-91
2022/10/18 04:39:54;;;;;;;;;24.50;22.50;;;;;15.23;100.00;101574.88;4937069;28;45298;-91
2022/10/18 04:42:21;;;;;;;;;31.50;27.50;;;;;14.89;100.00;101500.25;4936581;28;45506;-90
2022/10/18 04:44:46;;;;;;;;;31.50;30.50;;;;;15.26;100.00;101564.16;4936599;28;48788;-91
2022/10/18 04:47:11;;;;;;;;;31.25;27.00;;;;;14.48;100.00;101435.53;4936612;28;45711;-90
2022/10/18 04:49:37;;;;;;;;;30.00;26.25;;;;;14.34;100.00;101422.53;4953368;28;45448;-91
2022/10/18 04:52:03;;;;;;;;;28.75;27.00;;;;;15.29;100.00;101576.53;4937338;28;45704;-91
2022/10/18 04:54:28;;;;;;;;;28.75;27.00;;;;;15.02;100.00;101533.66;4954896;28;47050;-91
2022/10/18 04:56:53;;;;;;;;;30.25;29.25;;;;;14.81;100.00;101513.72;4955384;28;45493;-91
2022/10/18 04:59:19;;;;;;;;;36.25;30.25;;;;;14.26;100.00;101420.06;4955726;28;45469;-91
2022/10/18 05:01:44;;;;;;;;;34.50;29.50;;;;;14.95;100.00;101552.47;4970848;28;45534;-90
2022/10/18 05:04:09;;;;;;;;;25.75;25.50;;;;;14.21;100.00;101427.22;4970532;28;47245;-91
2022/10/18 05:06:35;;;;;;;;;32.25;25.75;;;;;15.04;100.00;101574.41;4949663;28;45366;-91
2022/10/18 05:09:00;;;;;;;;;36.00;29.75;;;;;15.05;100.00;101577.97;4958006;28;45305;-90
2022/10/18 05:11:26;;;;;;;;;20.25;18.25;;;;;15.39;100.00;101639.28;4976749;28;45422;-91
2022/10/18 05:13:51;;;;;;;;;36.25;28.75;;;;;14.96;100.00;101581.72;4959367;28;47392;-91
2022/10/18 05:16:17;;;;;;;;;36.75;31.50;;;;;14.95;100.00;101589.72;4961079;28;45458;-91
2022/10/18 05:18:42;;;;;;;;;34.25;29.50;;;;;14.03;100.00;101424.06;4973794;28;45410;-91
2022/10/18 05:21:08;;;;;;;;;31.00;29.50;;;;;15.39;100.00;101665.94;4940973;28;45331;-90
2022/10/18 05:23:33;;;;;;;;;39.25;29.75;;;;;14.80;100.00;101565.19;4939710;28;48070;-90
2022/10/18 05:26:03;;;;;;;;;31.00;27.50;;;;;15.27;100.00;101650.25;4955958;28;45481;-90
2022/10/18 05:28:29;;;;;;;;;33.00;31.50;;;;;15.07;100.00;101616.06;4967921;28;45513;-90
2022/10/18 05:30:54;;;;;;;;;32.00;25.50;;;;;15.24;100.00;101651.19;4964072;28;45365;-90
2022/10/18 05:33:20;;;;;;;;;28.75;27.25;;;;;14.78;100.00;101574.13;4959748;28;47316;-90
2022/10/18 05:35:45;;;;;;;;;25.50;25.00;;;;;15.14;100.00;101643.44;4947626;28;45442;-90
2022/10/18 05:38:11;;;;;;;;;31.50;26.25;;;;;14.89;100.00;101607.59;4956396;28;45476;-89
2022/10/18 05:40:39;;;;;;;;;26.75;22.00;;;;;14.81;100.00;101588.25;4974461;28;45615;-89
2022/10/18 05:43:04;;;;;;;;;29.50;26.25;;;;;14.97;100.00;101619.84;4974142;28;48561;-89
2022/10/18 05:45:30;;;;;;;;;32.75;28.00;;;;;14.98;100.00;101625.13;4944559;28;48096;-88
2022/10/18 05:47:55;;;;;;;;;34.25;27.25;;;;;15.44;100.00;101703.13;4973939;28;45571;-89
2022/10/18 05:50:22;;;;;;;;;37.00;29.25;;;;;14.69;100.00;101573.41;4958695;28;45224;-89
2022/10/18 05:52:47;;;;;;;;;32.75;29.25;;;;;15.00;100.00;101626.00;4958869;28;46301;-89
2022/10/18 05:55:13;;;;;;;;;27.00;26.50;;;;;15.49;100.00;101708.34;4956504;28;45369;-89
2022/10/18 05:57:38;;;;;;;;;29.50;28.50;;;;;15.27;100.00;101672.44;4958754;28;45426;-89
2022/10/18 06:00:04;;;;;;;;;29.50;24.25;;;;;14.08;100.00;101468.31;4973837;28;45396;-89
2022/10/18 06:02:29;;;;;;;;;29.50;24.50;;;;;14.47;100.00;101540.16;4957877;28;47649;-89
2022/10/18 06:04:55;;;;;;;;;22.00;20.00;;;;;15.09;100.00;101644.44;4956818;28;45508;-89
2022/10/18 06:07:20;;;;;;;;;32.25;26.50;;;;;15.13;100.00;101636.38;4957697;28;45417;-89
2022/10/18 06:09:46;;;;;;;;;29.75;27.00;;;;;14.42;100.00;101518.09;4947906;28;45417;-89
2022/10/18 06:12:11;;;;;;;;;29.00;23.25;;;;;14.98;100.00;101613.63;4954557;28;47991;-88
2022/10/18 06:14:37;;;;;;;;;25.50;24.25;;;;;15.31;100.00;101670.56;4959816;28;45379;-89
2022/10/18 06:17:03;;;;;;;;;22.50;20.75;;;;;15.77;100.00;101749.47;4957927;28;45380;-89
2022/10/18 06:19:28;;;;;;;;;26.50;22.75;;;;;14.61;100.00;101548.75;4959266;28;45444;-90
2022/10/18 06:21:54;;;;;;;;;31.00;25.75;;;;;15.26;100.00;101659.16;4957504;28;48199;-89
2022/10/18 06:24:20;;;;;;;;;25.25;23.50;;;;;15.15;100.00;101645.19;4956576;28;46057;-89
2022/10/18 06:26:46;;;;;;;;;28.00;25.75;;;;;14.86;100.00;101585.47;4973716;28;45533;-89
2022/10/18 06:29:11;;;;;;;;;22.75;21.75;;;;;15.25;100.00;101660.94;4974182;28;45603;-89
2022/10/18 06:31:36;;;;;;;;;22.25;20.25;;;;;15.47;100.00;101689.72;4974251;28;47049;-89
2022/10/18 06:34:01;;;;;;;;;19.25;18.50;;;;;15.06;100.00;101631.19;4957553;28;45822;-88
2022/10/18 06:36:27;;;;;;;;;23.75;23.75;;;;;14.66;100.00;101556.66;4976419;28;45550;-89
2022/10/18 06:38:53;;;;;;;;;28.00;24.00;;;;;15.14;100.00;101631.00;4977693;28;45380;-89
2022/10/18 06:41:19;;;;;;;;;25.50;20.75;;;;;14.74;100.00;101560.91;4992840;28;46029;-89
2022/10/18 06:44:12;;;;;;;;;24.75;22.00;;;;;15.22;100.00;101644.16;4976835;28;45737;-89
2022/10/18 06:46:37;;;;;;;;;26.50;25.50;;;;;15.59;100.00;101694.81;4938592;28;45403;-89
2022/10/18 06:49:02;;;;;;;;;24.50;21.25;;;;;15.46;100.00;101667.56;4955967;28;45435;-89
2022/10/18 06:51:28;;;;;;;;;15.00;15.00;;;;;15.53;100.00;101678.06;4962235;28;47783;-89
2022/10/18 06:53:53;;;;;;;;;21.50;21.00;;;;;15.50;100.00;101673.72;4955407;28;45310;-89
2022/10/18 06:56:19;;;;;;;;;23.25;18.75;;;;;14.96;100.00;101571.06;4956644;28;45412;-89
2022/10/18 06:58:44;;;;;;;;;19.75;19.75;;;;;15.58;100.00;101684.19;4975618;28;45361;-88
2022/10/18 07:01:12;;;;;;;;;20.75;19.00;;;;;15.03;100.00;101580.66;4974487;28;46836;-89
2022/10/18 07:03:38;;;;;;;;;23.50;19.25;;;;;16.23;100.00;101786.63;4958040;28;45608;-89
2022/10/18 07:06:05;;;;;;;;;18.50;17.25;;;;;15.39;100.00;101639.28;4956718;28;45313;-89
2022/10/18 07:08:31;;;;;;;;;21.00;21.00;;;;;15.58;100.00;101676.19;4968824;28;45369;-89
2022/10/18 07:10:57;;;;;;;;;26.25;22.50;;;;;16.04;100.00;101743.53;4971515;28;47853;-89
2022/10/18 07:13:23;;;;;;;;;13.25;13.25;;;;;16.20;100.00;101771.59;4958193;28;45412;-88
2022/10/18 07:15:58;;;;;;;;;21.75;20.25;;;;;16.23;100.00;101770.63;4944089;28;45413;-87
2022/10/18 07:18:23;;;;;;;;;24.50;21.75;;;;;15.17;100.00;101591.00;4937331;28;45359;-88
2022/10/18 07:20:48;;;;;;;;;21.00;17.50;;;;;15.51;100.00;101661.25;4968391;28;53002;-89
2022/10/18 07:23:14;;;;;;;;;25.25;22.25;;;;;15.51;100.00;101654.13;4921900;28;45446;-93
2022/10/18 07:25:40;;;;;;;;;21.00;19.00;;;;;15.59;100.00;101664.59;4961574;28;45396;-90
2022/10/18 07:28:05;;;;;;;;;20.25;18.25;;;;;15.95;100.00;101728.63;4963002;28;45506;-90
2022/10/18 07:30:30;;;;;;;;;21.75;19.75;;;;;15.56;100.00;101646.03;4955316;28;47868;-89
2022/10/18 07:32:58;;;;;;;;;18.50;18.00;;;;;16.28;100.00;101774.06;4942086;28;45742;-89
2022/10/18 07:35:24;;;;;;;;;20.00;17.75;;;;;15.90;100.00;101714.56;4944673;28;45688;-91
2022/10/18 07:37:50;;;;;;;;;14.50;13.00;;;;;15.22;100.00;101602.41;4946746;28;45372;-90
2022/10/18 07:40:16;;;;;;;;;13.75;11.50;;;;;15.27;100.00;101599.63;4968160;28;47005;-89
2022/10/18 07:42:41;;;;;;;;;16.75;13.00;;;;;15.88;100.00;101706.59;4950572;28;45468;-89
2022/10/18 07:45:07;;;;;;;;;13.00;13.00;;;;;15.30;100.00;101622.66;4943755;28;45555;-88
2022/10/18 07:47:32;;;;;;;;;14.00;14.00;;;;;16.01;100.00;101763.16;4944258;28;45513;-90
2022/10/18 07:49:58;;;;;;;;;13.75;12.25;;;;;15.73;100.00;101707.81;4953138;28;46933;-90
2022/10/18 07:52:23;;;;;;;;;14.00;14.00;;;;;15.40;100.00;101641.06;4954117;28;45555;-91
2022/10/18 07:54:48;;;;;;;;;17.50;14.75;;;;;15.89;100.00;101719.00;4957622;28;45266;-91
2022/10/18 07:57:14;;;;;;;;;9.50;7.50;;;;;15.81;100.00;101689.84;4956988;28;45433;-89
2022/10/18 07:59:39;;;;;;;;;16.50;16.25;;;;;16.05;100.00;101715.94;4956266;28;46717;-91
2022/10/18 08:02:04;;;;;;;;;15.75;14.75;;;;;15.55;100.00;101634.50;4947014;28;45306;-90
2022/10/18 08:04:30;;;;;;;;;14.50;14.50;;;;;16.12;100.00;101720.22;4953667;28;45436;-89
2022/10/18 08:06:55;;;;;;;;;11.50;11.00;;;;;16.00;100.00;101705.41;4946101;28;45448;-91
2022/10/18 08:09:20;;;;;;;;;10.50;10.50;;;;;16.13;100.00;101714.84;4965060;28;47353;-90
2022/10/18 08:11:46;;;;;;;;;14.00;9.75;;;;;15.92;100.00;101670.06;4951025;28;45473;-89
2022/10/18 08:14:11;;;;;;;;;10.50;8.00;;;;;16.84;100.00;101856.28;4952185;28;45532;-90
2022/10/18 08:16:36;;;;;;;;;8.75;7.00;;;;;16.30;100.00;101764.22;4958626;28;45480;-90
2022/10/18 08:19:03;;;;;;;;;6.00;6.00;;;;;16.79;100.00;101860.84;4948555;28;47692;-90
2022/10/18 08:21:28;;;;;;;;;11.50;11.50;;;;;15.63;100.00;101675.16;4952452;28;45510;-90
2022/10/18 08:23:53;;;;;;;;;10.75;7.25;;;;;15.43;100.00;101646.31;4958002;28;45259;-90
2022/10/18 08:26:20;;;;;;;;;5.50;5.50;;;;;16.25;100.00;101795.50;4944031;28;45469;-90
2022/10/18 08:28:47;;;;;;;;;10.50;9.50;;;;;15.53;100.00;101651.41;4960454;28;47390;-90
2022/10/18 08:31:17;;;;;;;;;11.25;10.50;;;;;16.19;100.00;101761.84;4969473;28;45636;-90
2022/10/18 08:33:44;;;;;;;;;15.75;13.75;;;;;16.65;100.00;101848.72;4950340;28;45358;-91
2022/10/18 08:36:12;;;;;;;;;17.00;16.50;;;;;15.55;100.00;101661.13;4959448;28;45317;-90
2022/10/18 08:38:39;;;;;;;;;10.25;10.25;;;;;16.54;100.00;101825.91;4943641;28;48328;-91
2022/10/18 08:41:36;;;;;;;;;13.25;11.75;;;;;16.87;100.00;101867.78;4956454;28;45448;-90
2022/10/18 08:44:11;;;;;;;;;13.00;13.00;;;;;17.10;100.00;101871.63;4952348;28;45400;-89
2022/10/18 08:46:40;;;;;;;;;17.00;14.00;;;;;17.16;100.00;101871.47;4946459;28;45549;-90
2022/10/18 08:49:16;;;;;;;;;10.25;8.00;;;;;15.86;100.00;101623.09;4965068;28;47032;-90
2022/10/18 08:51:46;;;;;;;;;12.75;12.75;;;;;16.32;100.00;101669.03;4967667;28;45958;-90
2022/10/18 08:54:14;;;;;;;;;9.00;9.00;;;;;17.40;100.00;101804.91;4959518;28;45393;-90
2022/10/18 08:56:53;;;;;;;;;11.25;11.25;;;;;17.85;100.00;101860.56;4956318;28;45543;-90
2022/10/18 08:59:18;;;;;;;;;31.75;28.25;;;;;16.39;97.35;101630.59;4952979;28;47237;-89
2022/10/18 09:02:02;;;;;;;;;9.50;9.25;;;;;17.70;100.00;101850.34;4952549;28;45456;-90
2022/10/18 09:04:43;;;;;;;;;16.75;16.75;;;;;16.30;97.72;101639.72;4946844;28;45565;-90
2022/10/18 09:07:35;;;;;;;;;41.50;35.00;;;;;17.55;100.00;101851.66;4944633;28;45625;-91
2022/10/18 09:10:25;;;;;;;;;22.50;21.00;;;;;17.63;100.00;101855.00;4900648;28;47101;-90
2022/10/18 09:13:19;;;;;;;;;15.25;11.00;;;;;17.77;100.00;101862.63;4916604;28;45993;-89
2022/10/18 09:15:49;;;;;;;;;18.75;18.75;;;;;17.20;100.00;101742.25;4903861;28;45300;-90
2022/10/18 09:18:20;;;;;;;;;12.00;11.50;;;;;17.86;100.00;101856.13;4903837;28;45746;-90
2022/10/18 09:20:58;;;;;;;;;17.50;14.50;;;;;17.20;100.00;101746.69;4902844;28;47081;-90
2022/10/18 09:23:47;;;;;;;;;11.75;11.75;;;;;18.02;100.00;101851.19;4924965;28;45355;-91
2022/10/18 09:26:21;;;;;;;;;17.25;16.00;;;;;18.06;100.00;101818.09;4889506;28;45402;-89
2022/10/18 09:29:09;;;;;;;;;13.75;10.25;;;;;18.16;100.00;101747.31;4902576;28;45782;-90
2022/10/18 09:31:59;;;;;;;;;8.75;8.75;;;;;18.54;100.00;101736.22;4895650;28;48533;-90
2022/10/18 09:34:40;;;;;;;;;6.25;6.25;;;;;18.63;98.54;101720.72;4904007;28;45440;-90
2022/10/18 09:37:12;;;;;;;;;6.00;6.00;;;;;18.39;98.59;101657.34;4900835;28;45552;-90
2022/10/18 09:39:39;;;;;;;;;9.50;8.75;;;;;18.67;98.40;101716.13;4895888;28;45281;-90
2022/10/18 09:42:14;;;;;;;;;7.50;7.00;;;;;19.29;97.82;101845.19;4899692;28;48601;-89
2022/10/18 09:44:48;;;;;;;;;8.00;6.75;;;;;18.36;93.78;101713.66;4895394;28;45458;-90
2022/10/18 09:47:20;;;;;;;;;8.25;8.00;;;;;19.13;96.87;101847.53;4935826;28;45269;-90
2022/10/18 09:49:54;;;;;;;;;6.75;6.00;;;;;18.49;97.29;101754.25;4953363;28;45362;-90
2022/10/18 09:52:26;;;;;;;;;8.00;6.50;;;;;18.53;95.51;101775.50;4943346;28;47101;-90
2022/10/18 09:54:56;;;;;;;;;7.25;6.75;;;;;18.22;94.82;101789.03;4972618;28;45206;-89
2022/10/18 09:57:30;;;;;;;;;8.00;8.00;;;;;17.39;92.21;101674.91;4951032;28;45419;-90
2022/10/18 09:59:56;;;;;;;;;8.50;7.50;;;;;17.35;97.09;101683.91;4958947;28;45388;-89
2022/10/18 10:02:22;;;;;;;;;7.00;7.00;;;;;17.84;99.10;101764.38;4955081;28;47272;-89
2022/10/18 10:04:48;;;;;;;;;10.75;8.00;;;;;17.79;99.72;101763.66;4959637;28;45512;-89
2022/10/18 10:07:19;;;;;;;;;8.25;8.00;;;;;18.00;100.00;101805.78;4949647;28;45474;-90
2022/10/18 10:10:27;;;;;;;;;5.50;5.50;;;;;18.23;100.00;101863.03;4966148;28;45420;-89
2022/10/18 10:13:14;;;;;;;;;5.00;5.00;;;;;17.53;97.82;101762.66;4960732;28;47465;-89
2022/10/18 10:15:54;;;;;;;;;6.75;4.50;;;;;17.04;96.78;101652.81;4946690;28;45492;-89
2022/10/18 10:18:23;;;;;;;;;4.00;4.00;;;;;17.91;100.00;101764.16;4956127;28;45385;-89
2022/10/18 10:20:55;;;;;;;;;4.00;3.00;;;;;18.14;100.00;101769.69;4939800;28;45164;-89
2022/10/18 10:23:36;;;;;;;;;4.50;2.00;;;;;18.84;100.00;101857.44;4950502;28;47918;-90
2022/10/18 10:26:06;;;;;;;;;2.50;2.50;;;;;18.78;100.00;101817.47;4946386;28;45294;-91
2022/10/18 10:28:40;;;;;;;;;4.75;4.75;;;;;19.05;100.00;101857.66;4953204;28;45405;-89
2022/10/18 10:31:23;;;;;;;;;5.00;4.00;;;;;18.98;95.17;101857.88;4942677;28;45307;-89
2022/10/18 10:34:08;;;;;;;;;1.75;1.75;;;;;19.04;98.68;101863.94;4944222;28;46737;-90
2022/10/18 10:36:44;;;;;;;;;4.00;4.00;;;;;18.77;99.28;101803.22;4944506;28;45433;-90
2022/10/18 10:39:12;;;;;;;;;1.00;1.00;;;;;18.94;98.80;101832.13;4947599;28;45576;-90
2022/10/18 10:41:40;;;;;;;;;2.00;2.00;;;;;18.41;97.70;101746.47;4954481;28;45415;-89
2022/10/18 10:44:18;;;;;;;;;3.50;3.50;;;;;17.91;93.61;101691.94;4961118;28;47500;-90
2022/10/18 10:46:47;;;;;;;;;3.50;3.50;;;;;18.76;96.95;101838.09;4945670;28;45585;-91
2022/10/18 10:49:24;;;;;;;;;3.25;3.00;;;;;18.85;98.12;101858.34;4973871;28;45469;-89
2022/10/18 10:52:17;;;;;;;;;2.00;2.00;;;;;18.25;100.00;101757.72;4949181;28;45587;-89
2022/10/18 10:54:44;;;;;;;;;5.25;4.50;;;;;18.85;100.00;101855.66;4950309;28;48795;-87
2022/10/18 10:57:11;;;;;;;;;3.50;2.75;;;;;18.88;100.00;101858.25;4953544;28;45515;-89
2022/10/18 10:59:54;;;;;;;;;4.25;3.25;;;;;18.10;99.53;101740.38;4947689;28;45277;-93
2022/10/18 11:02:25;;;;;;;;;5.75;5.00;;;;;18.02;98.29;101717.47;4951776;28;45550;-91
2022/10/18 11:04:52;;;;;;;;;5.75;5.75;;;;;18.36;97.58;101769.88;4957248;28;47924;-91
2022/10/18 11:07:32;;;;;;;;;6.50;6.50;;;;;18.82;96.72;101852.13;4954602;28;45291;-90
2022/10/18 11:10:03;;;;;;;;;5.75;5.25;;;;;18.76;98.45;101851.47;4944721;28;45428;-89
2022/10/18 11:12:46;;;;;;;;;6.50;6.25;;;;;16.69;97.37;101503.41;4944539;28;45589;-90
2022/10/18 11:15:27;;;;;;;;;9.00;8.00;;;;;16.79;98.80;101525.38;4944969;28;46947;-91